• Join FlightAware (Why Join?)
  • Login
  • US Flag 
06:35PM EST


 

Airport Tracker/Info


-or-


 

Live Flight TrackerFlight Track Log ✈ EJA922 ✈ 12-Sep-2013 ✈ KSNA - KSDL

Flight Track Log - Related Links

Times and Time Zones

All times are in EDT time to prevent confusion due to time zone crossing. See the EJA922 flight status page for this flight to view local times or setup timezone preferences in your user account.

Time Position Orientation Groundspeed Altitude Reporting Facility
EDT Latitude Longitude Course Direction KTS MPH feet Rate Location/Type
03:22PM 33.6167 -117.9000 85° East 219 252 3,200  Level Southern California TRACON
03:24PM 33.5428 -117.8747 164° South 272 313 5,900 2,520 Climbing Los Angeles Center
03:25PM 33.5414 -117.7814 91° East 302 348 9,100 3,480 Climbing Los Angeles Center
03:26PM 33.5581 -117.6617 80° East 304 350 13,100 3,240 Climbing Los Angeles Center
03:27PM 33.5619 -117.5539 87° East 319 367 15,900 2,040 Climbing Los Angeles Center
03:28PM 33.6851 -117.0844 85° East  Level Estimated
03:28PM 33.5681 -117.4311 87° East 362 417 17,400  Level Los Angeles Center
03:29PM 33.5756 -117.2978 86° East 398 458 18,900 1,440 Climbing Los Angeles Center
03:30PM 33.5825 -117.1436 87° East 420 483 20,500 1,560 Climbing Los Angeles Center
03:31PM 33.5903 -116.9844 87° East 432 497 22,200 1,500 Climbing Los Angeles Center
03:32PM 33.5975 -116.8386 87° East 440 506 23,700 1,320 Climbing Los Angeles Center
03:33PM 33.6039 -116.7011 87° East 451 519 25,000 1,200 Climbing Los Angeles Center
03:34PM 33.6131 -116.5144 87° East 465 535 26,200 1,020 Climbing Los Angeles Center
03:35PM 33.6194 -116.3517 87° East 482 555 27,200 960 Climbing Los Angeles Center
03:36PM 33.6267 -116.1856 87° East 493 567 28,200 960 Climbing Los Angeles Center
03:37PM 33.6239 -116.0169 91° East 502 578 29,200 960 Climbing Los Angeles Center
03:38PM 33.6219 -115.8467 91° East 507 583 30,200 840 Climbing Los Angeles Center
03:39PM 33.6186 -115.6742 91° East 514 592 31,000 360 Climbing Los Angeles Center
03:40PM 33.6122 -115.4953 92° East 533 613 31,000  Level Los Angeles Center
03:41PM 33.6064 -115.2781 92° East 543 625 31,000  Level Los Angeles Center
03:42PM 33.5819 -115.0636 98° East 539 620 31,000  Level Los Angeles Center
03:43PM 33.5608 -114.8831 98° East 544 626 31,000  Level Los Angeles Center
03:44PM 33.5392 -114.7031 98° East 546 628 31,000  Level Los Angeles Center
03:46PM 33.5172 -114.5250 98° East 543 625 31,000 -1,140 Level Los Angeles Center
03:47PM 33.4894 -114.3103 99° East 544 626 28,700 -2,280 Descending Los Angeles Center
03:47PM 33.4808 -114.2147 96° East 544 626 27,200 -2,280 Descending Albuquerque Center
03:48PM 33.4575 -114.0450 99° East 524 603 25,000 -1,080 Descending Albuquerque Center
03:49PM 33.4242 -113.8856 104° East 501 577 25,000 -600 Level Albuquerque Center
03:50PM 33.3931 -113.7253 103° East 496 571 23,800 -1,620 Descending Albuquerque Center
03:51PM 33.4169 -113.5656 80° East 494 568 21,800 -2,220 Descending Albuquerque Center
03:52PM 33.4744 -113.3828 69° East 488 562 19,300 -2,580 Descending Albuquerque Center
03:53PM 33.5172 -113.2364 71° East 475 547 16,600 -2,580 Descending Albuquerque Center
03:54PM 33.5442 -113.1500 69° East 449 517 14,900 -2,460 Descending Albuquerque Center
03:54PM 33.5592 -113.0967 71° East 454 522 14,000 -2,520 Descending Albuquerque Center
03:55PM 33.5764 -113.0403 70° East 409 471 12,900 -2,400 Descending Albuquerque Center
03:55PM 33.5972 -112.9719 70° East 412 474 11,600 -1,920 Descending Albuquerque Center
03:56PM 33.6111 -112.9197 72° East 381 438 11,000 -720 Descending Albuquerque Center
03:56PM 33.6153 -112.8461 86° East 389 448 10,900 -480 Descending Albuquerque Center
03:57PM 33.6375 -112.7781 69° East 339 390 10,500 -960 Descending Albuquerque Center
03:58PM 33.6583 -112.7258 64° Northeast 334 384 9,900 -1,320 Descending Albuquerque Center
03:58PM 33.6733 -112.6903 63° Northeast 288 331 9,200 -1,620 Descending Albuquerque Center
03:59PM 33.6911 -112.6450 65° Northeast 299 344 8,300 -1,920 Descending Albuquerque Center
04:00PM 33.7272 -112.5611 63° Northeast 285 328 6,200 -1,140 Descending Albuquerque Center
04:01PM 33.7622 -112.4792 63° Northeast 279 321 6,000 -120 Descending Albuquerque Center
04:02PM 33.7867 -112.3969 70° East 268 308 6,000 -60 Level Albuquerque Center
04:03PM 33.7825 -112.2869 93° East 277 319 5,900  Descending Albuquerque Center
04:04PM 33.7786 -112.1942 93° East 278 320 6,000  Climbing Albuquerque Center
04:05PM 33.7744 -112.1014 93° East 279 321 6,000  Level Albuquerque Center
04:06PM 33.7697 -112.0086 93° East 281 323 6,000 -240 Level Albuquerque Center
04:07PM 33.7583 -111.9206 99° East 274 315 5,600 -840 Descending Albuquerque Center
04:08PM 33.7144 -111.8714 137° Southeast 219 252 4,400 -1,440 Descending Albuquerque Center
04:09PM 33.6631 -111.8678 177° South 171 197 2,700 -1,380 Descending Albuquerque Center
04:10PM 33.6331 -111.9000 222° Southwest 155 178 1,600 -660 Descending Albuquerque Center
04:11PM 33.6042 -111.9308 222° Southwest 152 175 1,400 -240 Descending Albuquerque Center